Time;durP1;ratioP1;P1;durP2;ratioP2;P2;SDS_P1;SDS_P2;PMS_P1;PMS_P2;Temp;Humidity;BMP_temperature;BMP_pressure;BME280_temperature;BME280_humidity;BME280_pressure;Samples;Min_cycle;Max_cycle;Signal;HPM_P1;HPM_P2
2024/01/17 06:16:48;;;;;;;;;34.00;33.00;;;;;;;;5540885;23;11975;-74
2024/01/17 06:19:15;;;;;;;;;36.75;32.75;;;;;;;;4944271;29;11512;-70
2024/01/17 06:21:40;;;;;;;;;39.25;36.25;;;;;;;;4934312;29;8804;-73
2024/01/17 06:24:06;;;;;;;;;43.50;35.75;;;;;;;;4934572;29;11499;-71
2024/01/17 06:26:31;;;;;;;;;49.50;43.25;;;;;;;;4935191;29;8807;-72
2024/01/17 06:28:56;;;;;;;;;46.25;41.00;;;;;;;;4935355;29;9590;-73
2024/01/17 06:31:22;;;;;;;;;47.00;43.75;;;;;;;;4935446;29;8769;-73
2024/01/17 06:33:48;;;;;;;;;42.50;38.50;;;;;;;;4935221;29;8812;-73
2024/01/17 06:36:13;;;;;;;;;50.00;43.25;;;;;;;;4934963;29;9545;-72
2024/01/17 06:38:38;;;;;;;;;42.75;38.00;;;;;;;;4935242;29;8785;-72
2024/01/17 06:41:04;;;;;;;;;55.00;44.00;;;;;;;;4934784;29;8809;-72
2024/01/17 06:43:29;;;;;;;;;54.00;41.25;;;;;;;;4933586;29;9622;-72
2024/01/17 06:45:54;;;;;;;;;47.75;38.50;;;;;;;;4933611;29;8809;-77
2024/01/17 06:48:21;;;;;;;;;46.25;42.50;;;;;;;;4933754;29;8794;-72
2024/01/17 06:50:46;;;;;;;;;41.50;38.50;;;;;;;;4935026;29;8863;-71
2024/01/17 06:53:13;;;;;;;;;26.50;23.50;;;;;;;;4934778;29;12230;-71
2024/01/17 06:55:39;;;;;;;;;48.25;42.50;;;;;;;;4934663;29;8821;-70
2024/01/17 06:58:04;;;;;;;;;55.50;45.00;;;;;;;;4934657;29;11600;-75
2024/01/17 07:00:29;;;;;;;;;63.33;50.67;;;;;;;;4933342;29;11523;-73
2024/01/17 07:02:55;;;;;;;;;55.67;47.67;;;;;;;;4933477;29;8805;-77
2024/01/17 07:05:22;;;;;;;;;57.00;48.33;;;;;;;;4934665;29;8850;-73
2024/01/17 07:07:47;;;;;;;;;61.00;48.33;;;;;;;;4934637;29;8785;-72
2024/01/17 07:10:13;;;;;;;;;50.33;42.67;;;;;;;;4933060;29;11559;-72
2024/01/17 07:12:38;;;;;;;;;48.00;41.75;;;;;;;;4934602;29;8781;-72
2024/01/17 07:15:04;;;;;;;;;48.50;41.50;;;;;;;;4934615;29;12250;-72
2024/01/17 07:17:29;;;;;;;;;60.25;46.25;;;;;;;;4934979;29;8809;-73
2024/01/17 07:19:54;;;;;;;;;53.00;43.33;;;;;;;;4934177;29;8934;-73
2024/01/17 07:22:20;;;;;;;;;54.75;43.75;;;;;;;;4934419;29;8785;-73
2024/01/17 07:24:45;;;;;;;;;57.33;44.33;;;;;;;;4934289;29;8781;-73
2024/01/17 07:27:10;;;;;;;;;50.75;42.00;;;;;;;;4934482;29;8777;-71
2024/01/17 07:29:35;;;;;;;;;53.33;44.67;;;;;;;;4934281;29;9531;-73
2024/01/17 07:32:01;;;;;;;;;49.33;40.00;;;;;;;;4934365;29;8924;-72
2024/01/17 07:34:26;;;;;;;;;49.50;43.00;;;;;;;;4934016;29;8793;-74
2024/01/17 07:36:51;;;;;;;;;46.50;41.25;;;;;;;;4934147;29;8809;-74
2024/01/17 07:39:18;;;;;;;;;54.75;44.25;;;;;;;;4934012;29;8800;-73
2024/01/17 07:41:43;;;;;;;;;56.50;45.75;;;;;;;;4934561;29;8786;-74
2024/01/17 07:44:09;;;;;;;;;57.25;45.50;;;;;;;;4934296;29;12280;-72
2024/01/17 07:46:34;;;;;;;;;51.25;39.75;;;;;;;;4934273;29;8880;-72
2024/01/17 07:48:59;;;;;;;;;47.75;41.75;;;;;;;;4934220;29;8829;-71
2024/01/17 07:51:25;;;;;;;;;55.00;46.33;;;;;;;;4934263;29;8789;-70
2024/01/17 07:53:50;;;;;;;;;49.50;42.25;;;;;;;;4933939;29;8820;-70
2024/01/17 07:56:16;;;;;;;;;46.00;41.75;;;;;;;;4934244;29;8781;-70
2024/01/17 07:58:41;;;;;;;;;45.25;40.50;;;;;;;;4934193;29;8808;-69
2024/01/17 08:01:06;;;;;;;;;54.50;43.00;;;;;;;;4934545;29;8785;-71
2024/01/17 08:03:32;;;;;;;;;55.25;46.00;;;;;;;;4933815;29;8781;-73
2024/01/17 08:05:57;;;;;;;;;50.75;43.00;;;;;;;;4934040;29;8863;-71
2024/01/17 08:08:22;;;;;;;;;56.00;46.50;;;;;;;;4932651;29;8793;-72
2024/01/17 08:10:48;;;;;;;;;56.00;46.00;;;;;;;;4934154;29;8813;-70
2024/01/17 08:13:13;;;;;;;;;59.00;48.67;;;;;;;;4933934;29;8812;-70
2024/01/17 08:15:38;;;;;;;;;55.67;46.33;;;;;;;;4932702;29;8813;-72
2024/01/17 08:18:04;;;;;;;;;57.00;44.00;;;;;;;;4933848;29;8823;-72
2024/01/17 08:20:29;;;;;;;;;43.00;39.25;;;;;;;;4933960;29;8804;-71
2024/01/17 08:22:55;;;;;;;;;55.00;45.67;;;;;;;;4932542;29;8835;-71
2024/01/17 08:25:20;;;;;;;;;56.33;46.00;;;;;;;;4934133;29;8880;-71
2024/01/17 08:27:45;;;;;;;;;60.33;47.00;;;;;;;;4934027;29;8782;-71
2024/01/17 08:30:11;;;;;;;;;59.67;47.00;;;;;;;;4933794;29;8907;-71
2024/01/17 08:32:36;;;;;;;;;56.00;46.00;;;;;;;;4934020;29;8789;-71
2024/01/17 08:35:02;;;;;;;;;54.00;46.33;;;;;;;;4933755;29;8820;-72
2024/01/17 08:37:27;;;;;;;;;63.33;51.00;;;;;;;;4933590;29;8820;-73
2024/01/17 08:39:53;;;;;;;;;60.00;49.00;;;;;;;;4933954;29;8789;-72
2024/01/17 08:42:18;;;;;;;;;61.33;50.00;;;;;;;;4933836;29;8868;-73
2024/01/17 08:44:44;;;;;;;;;65.00;53.00;;;;;;;;4933970;29;8773;-73
2024/01/17 08:47:09;;;;;;;;;70.67;55.67;;;;;;;;4935467;29;8777;-73
2024/01/17 08:49:38;;;;;;;;;41.00;36.00;;;;;;;;4937068;29;9542;-74
2024/01/17 08:52:03;;;;;;;;;56.00;46.67;;;;;;;;4936162;29;8789;-74
2024/01/17 08:54:29;;;;;;;;;60.33;49.00;;;;;;;;4937143;29;8867;-74
2024/01/17 08:56:54;;;;;;;;;63.33;50.33;;;;;;;;4935773;29;8860;-74
2024/01/17 08:59:19;;;;;;;;;57.67;47.33;;;;;;;;4936909;29;9561;-74
2024/01/17 09:01:46;;;;;;;;;63.33;52.00;;;;;;;;4935747;29;8793;-73
2024/01/17 09:04:11;;;;;;;;;57.67;47.67;;;;;;;;4936754;29;8910;-74
2024/01/17 09:06:36;;;;;;;;;67.33;51.67;;;;;;;;4936880;29;11606;-74
2024/01/17 09:09:03;;;;;;;;;58.67;47.67;;;;;;;;4936742;29;8906;-74
2024/01/17 09:11:28;;;;;;;;;61.33;49.33;;;;;;;;4936795;29;8765;-74
2024/01/17 09:13:53;;;;;;;;;62.00;50.00;;;;;;;;4936888;29;8908;-74
2024/01/17 09:16:19;;;;;;;;;63.00;51.67;;;;;;;;4936591;29;8801;-73
2024/01/17 09:18:44;;;;;;;;;61.67;49.33;;;;;;;;4936595;29;9468;-73
2024/01/17 09:21:09;;;;;;;;;65.67;52.67;;;;;;;;4936615;29;8777;-75
2024/01/17 09:23:34;;;;;;;;;65.67;54.00;;;;;;;;4936553;29;8908;-75
2024/01/17 09:26:00;;;;;;;;;60.33;49.00;;;;;;;;4936531;29;8935;-75
2024/01/17 09:28:25;;;;;;;;;63.67;49.33;;;;;;;;4936834;29;8872;-75
2024/01/17 09:30:50;;;;;;;;;56.67;45.00;;;;;;;;4936471;29;8829;-75
2024/01/17 09:33:16;;;;;;;;;60.33;49.00;;;;;;;;4936357;29;8924;-75
2024/01/17 09:35:44;;;;;;;;;65.33;53.00;;;;;;;;4936248;29;8808;-76
2024/01/17 09:38:11;;;;;;;;;61.33;50.67;;;;;;;;4934982;29;8844;-75
2024/01/17 09:40:37;;;;;;;;;63.67;52.00;;;;;;;;4936469;29;8820;-76
2024/01/17 09:43:04;;;;;;;;;61.33;49.00;;;;;;;;4936073;29;11616;-75
2024/01/17 09:45:29;;;;;;;;;63.00;51.00;;;;;;;;4934853;29;8823;-75
2024/01/17 09:47:56;;;;;;;;;64.33;52.00;;;;;;;;4936313;29;8891;-75
2024/01/17 09:50:21;;;;;;;;;60.67;49.00;;;;;;;;4935799;29;8848;-73
2024/01/17 09:52:48;;;;;;;;;60.67;50.00;;;;;;;;4936361;29;8796;-73
2024/01/17 09:55:15;;;;;;;;;55.33;42.00;;;;;;;;4935927;29;8805;-72
2024/01/17 09:57:44;;;;;;;;;59.33;49.00;;;;;;;;4935806;29;8781;-73
2024/01/17 10:00:12;;;;;;;;;63.33;50.33;;;;;;;;4935885;29;8800;-74
2024/01/17 10:02:38;;;;;;;;;60.00;48.67;;;;;;;;4935958;29;8896;-74
2024/01/17 10:05:08;;;;;;;;;59.67;48.33;;;;;;;;4935688;29;8915;-74
2024/01/17 10:07:34;;;;;;;;;56.67;48.00;;;;;;;;4936002;29;9553;-73
2024/01/17 10:09:59;;;;;;;;;58.00;47.33;;;;;;;;4935666;29;9543;-73
2024/01/17 10:12:25;;;;;;;;;69.33;55.00;;;;;;;;4935805;29;8884;-73
2024/01/17 10:14:50;;;;;;;;;55.33;44.00;;;;;;;;4935808;29;8828;-74
2024/01/17 10:17:15;;;;;;;;;60.67;49.00;;;;;;;;4935903;29;8805;-74
2024/01/17 10:19:41;;;;;;;;;44.75;40.75;;;;;;;;4935422;29;8887;-73
2024/01/17 10:22:09;;;;;;;;;55.75;44.75;;;;;;;;4934190;29;8812;-73
2024/01/17 10:24:36;;;;;;;;;55.00;46.00;;;;;;;;4935677;29;8781;-73
2024/01/17 10:27:02;;;;;;;;;51.00;41.75;;;;;;;;4935556;29;11542;-73
2024/01/17 10:29:29;;;;;;;;;55.75;45.50;;;;;;;;4935364;29;8829;-73
2024/01/17 10:31:59;;;;;;;;;52.25;44.00;;;;;;;;4934154;29;11518;-73
2024/01/17 10:34:27;;;;;;;;;61.00;47.50;;;;;;;;4934885;29;11511;-73
2024/01/17 10:36:53;;;;;;;;;54.50;45.50;;;;;;;;4933909;29;11706;-73
2024/01/17 10:39:21;;;;;;;;;54.50;44.75;;;;;;;;4935039;29;11629;-74
2024/01/17 10:41:51;;;;;;;;;55.50;45.00;;;;;;;;4935278;29;8917;-73
2024/01/17 10:44:19;;;;;;;;;58.33;46.33;;;;;;;;4935041;29;11486;-73
2024/01/17 10:46:47;;;;;;;;;60.33;46.00;;;;;;;;4933724;29;11499;-77
2024/01/17 10:49:12;;;;;;;;;60.50;46.75;;;;;;;;4934864;29;11547;-76
2024/01/17 10:51:38;;;;;;;;;61.33;50.67;;;;;;;;4934958;29;11502;-78
2024/01/17 10:54:04;;;;;;;;;62.00;50.33;;;;;;;;4935144;29;8797;-77
2024/01/17 10:56:30;;;;;;;;;57.00;48.75;;;;;;;;4934830;29;11616;-75
2024/01/17 10:58:56;;;;;;;;;58.00;48.00;;;;;;;;4933655;29;8823;-72
2024/01/17 11:01:31;;;;;;;;;61.00;51.67;;;;;;;;4934908;29;11513;-76
2024/01/17 11:03:58;;;;;;;;;31.33;27.33;;;;;;;;4934838;29;8937;-72
2024/01/17 11:06:23;;;;;;;;;60.33;49.00;;;;;;;;4934591;29;11504;-72
2024/01/17 11:08:49;;;;;;;;;62.00;48.67;;;;;;;;4934556;29;8907;-72
2024/01/17 18:40:22;;;;;;;;;10.00;6.75;;;;;;;;5103274;27;13407;-70
2024/01/17 18:42:47;;;;;;;;;12.50;9.50;;;;;;;;5087752;28;11482;-71
2024/01/17 18:45:13;;;;;;;;;8.75;8.25;;;;;;;;5087837;28;11478;-72
2024/01/17 18:47:38;;;;;;;;;14.50;13.50;;;;;;;;5087526;28;8916;-73
2024/01/17 18:50:03;;;;;;;;;14.00;9.00;;;;;;;;5101395;28;8834;-71
2024/01/17 18:52:29;;;;;;;;;9.25;7.75;;;;;;;;5106708;28;8815;-70
2024/01/17 18:54:54;;;;;;;;;10.25;8.50;;;;;;;;5108009;28;9614;-70
2024/01/17 18:57:19;;;;;;;;;11.75;9.50;;;;;;;;5107934;28;8786;-71
2024/01/17 18:59:47;;;;;;;;;9.25;8.25;;;;;;;;5103957;28;8827;-69
2024/01/17 19:02:12;;;;;;;;;10.00;9.50;;;;;;;;5106394;28;8800;-70
2024/01/17 19:04:38;;;;;;;;;14.75;8.75;;;;;;;;5107352;28;11176;-71
2024/01/17 19:07:04;;;;;;;;;10.00;7.25;;;;;;;;5107660;28;8799;-70
2024/01/17 19:09:31;;;;;;;;;10.00;8.00;;;;;;;;5100394;28;8842;-69
2024/01/17 19:11:56;;;;;;;;;6.50;4.50;;;;;;;;5107698;28;8820;-70
2024/01/17 19:14:21;;;;;;;;;12.25;10.25;;;;;;;;5096304;28;10734;-70
2024/01/17 19:16:47;;;;;;;;;13.00;9.25;;;;;;;;5087088;28;8799;-72
2024/01/17 19:19:13;;;;;;;;;11.50;10.50;;;;;;;;5093017;28;8843;-72
2024/01/17 19:21:38;;;;;;;;;9.25;9.00;;;;;;;;5107056;28;11550;-71
2024/01/17 19:24:04;;;;;;;;;9.00;9.00;;;;;;;;5107407;28;8826;-70
2024/01/17 19:26:30;;;;;;;;;13.00;12.00;;;;;;;;5107401;28;8803;-70
2024/01/17 19:28:56;;;;;;;;;16.50;10.50;;;;;;;;5103326;28;8820;-71
2024/01/17 19:31:21;;;;;;;;;13.00;9.50;;;;;;;;5089543;28;10915;-71
2024/01/17 19:33:46;;;;;;;;;9.25;9.00;;;;;;;;5084372;28;8845;-70
2024/01/17 19:36:11;;;;;;;;;15.25;10.25;;;;;;;;5085775;28;8806;-69
2024/01/17 19:38:37;;;;;;;;;15.50;9.50;;;;;;;;5087080;28;8808;-70
2024/01/17 19:41:03;;;;;;;;;14.75;11.25;;;;;;;;5084328;28;8936;-71
2024/01/17 19:43:28;;;;;;;;;14.75;12.00;;;;;;;;5085463;28;11789;-71
2024/01/17 19:45:54;;;;;;;;;11.75;9.75;;;;;;;;5086036;28;8794;-70
2024/01/17 19:48:21;;;;;;;;;11.00;9.25;;;;;;;;5086056;28;8919;-71
2024/01/17 19:50:46;;;;;;;;;14.00;12.25;;;;;;;;5075442;28;11565;-71
2024/01/17 19:53:11;;;;;;;;;12.50;11.75;;;;;;;;5070835;28;10750;-69
2024/01/17 19:55:36;;;;;;;;;16.00;13.25;;;;;;;;5072985;28;9597;-70
2024/01/17 19:58:02;;;;;;;;;11.75;11.00;;;;;;;;5071988;28;8791;-70
2024/01/17 20:00:29;;;;;;;;;20.00;12.00;;;;;;;;5071903;28;8818;-70
2024/01/17 20:02:54;;;;;;;;;18.75;15.75;;;;;;;;5072706;28;8913;-70
2024/01/17 20:05:19;;;;;;;;;55.75;45.00;;;;;;;;5072607;28;10938;-68
2024/01/17 20:07:44;;;;;;;;;93.00;80.33;;;;;;;;5072809;28;8936;-73
2024/01/17 20:10:10;;;;;;;;;67.25;54.00;;;;;;;;5072628;28;8818;-73
2024/01/17 20:12:35;;;;;;;;;43.00;35.00;;;;;;;;5072660;28;8809;-71
2024/01/17 20:15:00;;;;;;;;;21.25;21.25;;;;;;;;5072195;28;9575;-71
2024/01/17 20:17:26;;;;;;;;;26.00;24.50;;;;;;;;5072353;28;9504;-75
2024/01/17 20:19:51;;;;;;;;;21.00;15.00;;;;;;;;5086121;28;9008;-75
2024/01/17 20:22:16;;;;;;;;;16.25;15.00;;;;;;;;5092734;28;8791;-71
2024/01/17 20:24:41;;;;;;;;;20.00;16.00;;;;;;;;5091293;28;8814;-72
2024/01/17 20:27:07;;;;;;;;;22.75;16.50;;;;;;;;5092418;28;8800;-71
2024/01/17 20:29:32;;;;;;;;;15.25;13.00;;;;;;;;5090940;28;8818;-72
2024/01/17 20:31:57;;;;;;;;;15.00;12.25;;;;;;;;5092467;28;8934;-76
2024/01/17 20:34:23;;;;;;;;;15.75;14.25;;;;;;;;5092155;28;8791;-76
2024/01/17 20:36:51;;;;;;;;;11.00;10.25;;;;;;;;5092171;28;8787;-73
2024/01/17 20:39:17;;;;;;;;;12.50;12.00;;;;;;;;5092241;28;8958;-73
2024/01/17 20:41:43;;;;;;;;;12.00;10.75;;;;;;;;5089973;28;11072;-76
2024/01/17 20:44:09;;;;;;;;;11.75;11.75;;;;;;;;5083532;28;8848;-73
2024/01/17 20:46:38;;;;;;;;;8.50;7.50;;;;;;;;5071548;28;8782;-74
2024/01/17 20:49:04;;;;;;;;;12.00;10.00;;;;;;;;5076700;28;10556;-74
2024/01/17 20:51:29;;;;;;;;;12.00;8.75;;;;;;;;5091627;28;10945;-74
2024/01/17 20:53:54;;;;;;;;;15.00;10.00;;;;;;;;5092371;28;8868;-74
2024/01/17 20:56:21;;;;;;;;;3.50;3.00;;;;;;;;5092080;28;8803;-74
2024/01/17 20:58:48;;;;;;;;;10.25;9.75;;;;;;;;5091658;28;8866;-74
2024/01/17 21:01:13;;;;;;;;;10.00;9.25;;;;;;;;5088981;28;10610;-74
2024/01/17 21:03:38;;;;;;;;;8.75;8.00;;;;;;;;5089864;28;10769;-69
2024/01/17 21:06:04;;;;;;;;;5.00;4.50;;;;;;;;5090603;28;8819;-69
2024/01/17 21:08:29;;;;;;;;;5.50;5.50;;;;;;;;5090463;28;8788;-70
2024/01/17 21:10:55;;;;;;;;;5.75;5.75;;;;;;;;5091830;28;8780;-70
2024/01/17 21:13:20;;;;;;;;;5.25;5.25;;;;;;;;5091575;28;9611;-70
2024/01/17 21:15:45;;;;;;;;;8.25;6.00;;;;;;;;5091619;28;8788;-69
2024/01/17 21:18:11;;;;;;;;;10.25;7.50;;;;;;;;5090420;28;8795;-71
2024/01/17 21:20:36;;;;;;;;;22.75;18.25;;;;;;;;5088468;28;8776;-71
2024/01/17 21:23:02;;;;;;;;;19.00;17.00;;;;;;;;5070600;28;8917;-71
2024/01/17 21:25:27;;;;;;;;;14.75;14.00;;;;;;;;5070918;28;8774;-69
2024/01/17 21:27:53;;;;;;;;;25.00;20.75;;;;;;;;5070693;28;11071;-70
2024/01/17 21:30:18;;;;;;;;;15.00;14.00;;;;;;;;5071070;28;8771;-71
2024/01/17 21:32:44;;;;;;;;;13.75;10.00;;;;;;;;5070879;28;8813;-72
2024/01/17 21:35:09;;;;;;;;;10.00;6.00;;;;;;;;5070307;28;8778;-71
2024/01/17 21:37:35;;;;;;;;;7.50;7.00;;;;;;;;4988533;28;11751;-71
2024/01/17 21:40:06;;;;;;;;;10.25;7.00;;;;;;;;5030080;28;8856;-72
2024/01/17 21:42:31;;;;;;;;;10.00;9.25;;;;;;;;5029042;28;8967;-71
2024/01/17 21:44:56;;;;;;;;;6.75;5.50;;;;;;;;5029026;28;10780;-72
2024/01/17 21:47:22;;;;;;;;;6.75;6.25;;;;;;;;5029624;28;8828;-73
2024/01/17 21:49:47;;;;;;;;;9.00;6.00;;;;;;;;5043993;28;8801;-73
2024/01/17 21:52:12;;;;;;;;;10.25;6.75;;;;;;;;5032290;28;8826;-73
2024/01/17 21:54:37;;;;;;;;;7.50;5.25;;;;;;;;5030849;28;8784;-72
2024/01/17 21:57:05;;;;;;;;;10.50;4.00;;;;;;;;5030652;28;8795;-72
2024/01/17 21:59:30;;;;;;;;;6.00;4.00;;;;;;;;5030633;28;9557;-72
2024/01/17 22:01:55;;;;;;;;;4.00;4.00;;;;;;;;5030719;28;10706;-72
2024/01/17 22:04:21;;;;;;;;;5.25;5.00;;;;;;;;5030406;28;8795;-72
2024/01/17 22:06:47;;;;;;;;;5.00;5.00;;;;;;;;5030080;28;8811;-72
2024/01/17 22:09:12;;;;;;;;;7.00;3.00;;;;;;;;5030473;28;11478;-72
2024/01/17 22:11:38;;;;;;;;;5.00;5.00;;;;;;;;5030359;28;8835;-73
2024/01/17 22:14:03;;;;;;;;;6.00;5.75;;;;;;;;5030246;28;9545;-73
2024/01/17 22:16:29;;;;;;;;;7.00;5.50;;;;;;;;5030248;28;10738;-73
2024/01/17 22:18:54;;;;;;;;;6.75;3.00;;;;;;;;5036148;28;8937;-73
2024/01/17 22:21:19;;;;;;;;;6.00;3.00;;;;;;;;5050308;28;9404;-73
2024/01/17 22:23:45;;;;;;;;;5.75;3.50;;;;;;;;5050431;28;8887;-73
2024/01/17 22:26:10;;;;;;;;;2.75;2.75;;;;;;;;5050281;28;8898;-72
2024/01/17 22:28:35;;;;;;;;;3.00;1.75;;;;;;;;5050160;28;8801;-72
2024/01/17 22:31:00;;;;;;;;;4.50;1.75;;;;;;;;5050165;28;8870;-72
2024/01/17 22:33:26;;;;;;;;;6.75;3.50;;;;;;;;5050260;28;9491;-72
2024/01/17 22:35:51;;;;;;;;;1.75;1.75;;;;;;;;5037576;28;8890;-73
2024/01/17 22:38:16;;;;;;;;;2.75;0.75;;;;;;;;5025202;28;8870;-72
2024/01/17 22:40:41;;;;;;;;;5.00;2.00;;;;;;;;5010667;28;8782;-73
2024/01/17 22:43:07;;;;;;;;;5.75;3.00;;;;;;;;5010382;28;8838;-73
2024/01/17 22:45:32;;;;;;;;;8.00;5.00;;;;;;;;5010325;28;8802;-73
2024/01/17 22:47:57;;;;;;;;;2.00;1.00;;;;;;;;5010671;28;9645;-73
2024/01/17 22:50:22;;;;;;;;;2.00;2.00;;;;;;;;5046055;28;9087;-72
2024/01/17 22:52:48;;;;;;;;;5.25;1.50;;;;;;;;5049952;28;8801;-72
2024/01/17 22:55:13;;;;;;;;;3.00;2.00;;;;;;;;5049856;28;8899;-74
2024/01/17 22:57:38;;;;;;;;;2.50;1.50;;;;;;;;5047161;28;8867;-72
2024/01/17 23:00:06;;;;;;;;;12.00;2.00;;;;;;;;5048806;28;9518;-72
2024/01/17 23:02:31;;;;;;;;;4.50;2.00;;;;;;;;5050213;28;8805;-70
2024/01/17 23:04:57;;;;;;;;;3.00;3.00;;;;;;;;5049861;28;10866;-72
2024/01/17 23:07:22;;;;;;;;;8.25;5.00;;;;;;;;5050124;28;8908;-71
2024/01/17 23:09:47;;;;;;;;;3.50;3.00;;;;;;;;5050310;28;8801;-70
2024/01/17 23:12:13;;;;;;;;;0.75;0.75;;;;;;;;5050043;28;8827;-71
2024/01/17 23:14:38;;;;;;;;;6.00;5.00;;;;;;;;5049876;28;8819;-71
2024/01/17 23:17:03;;;;;;;;;7.00;5.25;;;;;;;;5050420;28;8793;-71
2024/01/17 23:19:28;;;;;;;;;6.00;3.00;;;;;;;;5049889;28;8813;-71
2024/01/17 23:21:54;;;;;;;;;2.00;2.00;;;;;;;;5048528;28;8801;-71
2024/01/17 23:24:22;;;;;;;;;8.25;4.50;;;;;;;;5049966;28;8785;-71
2024/01/17 23:26:47;;;;;;;;;2.25;2.00;;;;;;;;5053375;28;8878;-71
2024/01/17 23:29:12;;;;;;;;;2.50;1.75;;;;;;;;5052219;28;11325;-71
2024/01/17 23:31:38;;;;;;;;;4.75;2.00;;;;;;;;5053804;28;8820;-71
2024/01/17 23:34:03;;;;;;;;;6.25;3.00;;;;;;;;5053540;28;8848;-71
2024/01/17 23:36:28;;;;;;;;;5.00;3.00;;;;;;;;5053418;28;8793;-71
2024/01/17 23:38:54;;;;;;;;;5.00;2.00;;;;;;;;5051919;28;8891;-71
2024/01/17 23:41:19;;;;;;;;;1.00;1.00;;;;;;;;5053751;28;8801;-71
2024/01/17 23:43:45;;;;;;;;;9.00;4.00;;;;;;;;5053273;28;8800;-71
2024/01/17 23:46:10;;;;;;;;;5.50;2.50;;;;;;;;5053486;28;8821;-71
2024/01/17 23:48:36;;;;;;;;;2.25;2.25;;;;;;;;5053254;28;8812;-71
